createdAt,value
2022-11-27T00:01:39.519Z,12.90
2022-11-27T00:04:10.103Z,13.57
2022-11-27T00:06:40.268Z,16.35
2022-11-27T00:09:16.273Z,12.48
2022-11-27T00:11:44.285Z,14.07
2022-11-27T00:14:14.772Z,14.38
2022-11-27T00:16:42.432Z,15.80
2022-11-27T00:19:11.478Z,12.15
2022-11-27T00:21:39.036Z,15.50
2022-11-27T00:24:08.677Z,14.68
2022-11-27T00:26:38.160Z,12.38
2022-11-27T00:29:07.096Z,13.55
2022-11-27T00:31:37.559Z,13.55
2022-11-27T00:34:08.809Z,12.02
2022-11-27T00:36:37.648Z,15.63
2022-11-27T00:39:05.715Z,13.32
2022-11-27T00:41:33.451Z,12.57
2022-11-27T00:44:00.653Z,11.85
2022-11-27T00:46:31.727Z,13.43
2022-11-27T00:49:02.995Z,12.00
2022-11-27T00:51:31.013Z,13.73
2022-11-27T00:53:58.651Z,13.25
2022-11-27T00:56:33.961Z,11.90
2022-11-27T00:59:01.624Z,12.02
2022-11-27T01:01:37.017Z,12.13
2022-11-27T01:04:07.931Z,14.60
2022-11-27T01:06:35.408Z,12.70
2022-11-27T01:09:03.723Z,12.57
2022-11-27T01:11:34.563Z,11.10
2022-11-27T01:14:14.228Z,11.88
2022-11-27T01:16:43.342Z,10.52
2022-11-27T01:19:13.416Z,11.15
2022-11-27T01:21:41.004Z,11.80
2022-11-27T01:24:10.864Z,12.25
2022-11-27T01:26:38.075Z,11.10
2022-11-27T01:29:05.267Z,11.85
2022-11-27T01:31:34.468Z,18.55
2022-11-27T01:34:13.290Z,10.95
2022-11-27T01:36:41.017Z,14.45
2022-11-27T01:39:08.301Z,9.43
2022-11-27T01:41:39.924Z,8.82
2022-11-27T01:44:25.537Z,8.85
2022-11-27T01:47:07.464Z,8.43
2022-11-27T01:49:44.236Z,10.40
2022-11-27T01:52:32.841Z,8.85
2022-11-27T01:55:20.333Z,11.38
2022-11-27T01:57:56.627Z,11.07
2022-11-27T02:00:24.907Z,10.88
2022-11-27T02:02:52.498Z,9.70
2022-11-27T02:05:26.117Z,10.57
2022-11-27T02:07:54.282Z,9.07
2022-11-27T02:10:28.487Z,9.90
2022-11-27T02:13:14.089Z,11.68
2022-11-27T02:16:35.928Z,8.75
2022-11-27T02:19:59.017Z,9.32
2022-11-27T02:22:46.910Z,10.38
2022-11-27T02:26:01.314Z,9.48
2022-11-27T02:29:09.467Z,11.77
2022-11-27T02:31:54.604Z,10.35
2022-11-27T02:34:45.902Z,11.47
2022-11-27T02:37:28.834Z,8.15
2022-11-27T02:40:04.054Z,9.70
2022-11-27T02:43:19.283Z,19.67
2022-11-27T02:45:52.610Z,8.57
2022-11-27T02:48:29.635Z,8.98
2022-11-27T02:50:57.175Z,9.75
2022-11-27T02:53:37.867Z,9.25
2022-11-27T02:56:17.073Z,9.63
2022-11-27T02:58:48.029Z,9.18
2022-11-27T03:01:18.507Z,11.15
2022-11-27T03:03:52.144Z,9.80
2022-11-27T03:06:44.389Z,9.63
2022-11-27T03:09:26.241Z,12.20
2022-11-27T03:11:53.928Z,10.55
2022-11-27T03:14:24.474Z,13.30
2022-11-27T03:17:15.621Z,12.15
2022-11-27T03:20:22.060Z,11.75
2022-11-27T03:22:49.281Z,9.43
2022-11-27T03:25:16.693Z,9.27
2022-11-27T03:28:10.938Z,10.65
2022-11-27T03:30:40.677Z,9.65
2022-11-27T03:33:08.401Z,9.98
2022-11-27T03:35:35.569Z,13.70
2022-11-27T03:38:03.086Z,16.05
2022-11-27T03:41:00.873Z,15.05
2022-11-27T03:43:35.848Z,14.98
2022-11-27T03:46:29.681Z,18.55
2022-11-27T03:49:45.213Z,14.30
2022-11-27T03:52:47.636Z,12.65
2022-11-27T03:56:13.719Z,16.85
2022-11-27T03:58:58.880Z,13.82
2022-11-27T04:01:27.579Z,16.13
2022-11-27T04:03:54.851Z,18.00
2022-11-27T04:06:22.078Z,19.38
2022-11-27T04:08:49.557Z,16.02
2022-11-27T04:11:17.004Z,20.30
2022-11-27T04:13:44.249Z,21.88
2022-11-27T04:16:11.679Z,16.95
2022-11-27T04:18:38.918Z,17.40
2022-11-27T04:21:06.237Z,21.20
2022-11-27T04:23:33.392Z,17.48
2022-11-27T04:26:00.692Z,15.07
2022-11-27T04:28:27.955Z,19.65
2022-11-27T04:30:55.111Z,22.40
2022-11-27T04:33:23.124Z,16.48
2022-11-27T04:35:51.710Z,16.10
2022-11-27T04:38:20.834Z,14.95
2022-11-27T04:40:48.430Z,15.57
2022-11-27T04:43:15.611Z,13.77
2022-11-27T04:45:44.300Z,13.85
2022-11-27T04:48:11.593Z,14.93
2022-11-27T04:50:39.061Z,14.60
2022-11-27T04:53:06.462Z,15.68
2022-11-27T04:55:35.207Z,13.15
2022-11-27T04:58:02.414Z,19.38
2022-11-27T05:00:29.652Z,17.55
2022-11-27T05:02:57.040Z,16.73
2022-11-27T05:05:24.349Z,16.88
2022-11-27T05:07:51.565Z,14.77
2022-11-27T05:10:18.789Z,16.58
2022-11-27T05:12:45.908Z,19.50
2022-11-27T05:15:13.096Z,19.67
2022-11-27T05:17:40.244Z,13.80
2022-11-27T05:20:08.556Z,18.02
2022-11-27T05:22:35.735Z,15.82
2022-11-27T05:25:03.188Z,17.80
2022-11-27T05:27:30.417Z,16.98
2022-11-27T05:29:57.645Z,17.65
2022-11-27T05:32:25.025Z,16.23
2022-11-27T05:34:52.324Z,17.15
2022-11-27T05:37:20.147Z,15.00
2022-11-27T05:39:47.759Z,15.70
2022-11-27T05:42:15.024Z,17.17
2022-11-27T05:44:42.590Z,13.93
2022-11-27T05:47:10.027Z,18.33
2022-11-27T05:49:38.458Z,16.50
2022-11-27T05:52:05.628Z,14.18
2022-11-27T05:54:32.935Z,17.08
2022-11-27T05:57:00.095Z,13.65
2022-11-27T05:59:27.292Z,17.42
2022-11-27T06:01:54.535Z,21.58
2022-11-27T06:04:21.922Z,17.75
2022-11-27T06:06:49.127Z,14.60
2022-11-27T06:09:16.297Z,20.55
2022-11-27T06:11:43.591Z,19.73
2022-11-27T06:14:11.521Z,16.52
2022-11-27T06:16:38.944Z,15.40
2022-11-27T06:19:06.315Z,14.90
2022-11-27T06:21:33.479Z,18.38
2022-11-27T06:24:00.749Z,19.48
2022-11-27T06:26:31.882Z,25.10
2022-11-27T06:29:01.121Z,37.55
2022-11-27T06:31:32.405Z,35.15
2022-11-27T06:34:00.613Z,22.40
2022-11-27T06:36:34.469Z,22.63
2022-11-27T06:39:04.930Z,21.10
2022-11-27T06:41:33.404Z,18.90
2022-11-27T06:44:01.989Z,16.73
2022-11-27T06:46:30.127Z,16.50
2022-11-27T06:48:59.416Z,17.75
2022-11-27T06:51:31.589Z,15.95
2022-11-27T06:54:02.631Z,17.83
2022-11-27T06:56:32.228Z,19.95
2022-11-27T06:59:01.613Z,20.58
2022-11-27T07:01:31.182Z,17.75
2022-11-27T07:03:59.045Z,17.20
2022-11-27T07:06:28.153Z,19.00
2022-11-27T07:08:56.728Z,17.33
2022-11-27T07:11:28.485Z,21.73
2022-11-27T07:14:01.421Z,15.73
2022-11-27T07:16:32.543Z,17.75
2022-11-27T07:19:05.447Z,18.30
2022-11-27T07:21:33.545Z,18.67
2022-11-27T07:24:01.602Z,16.75
2022-11-27T07:26:30.772Z,19.40
2022-11-27T07:28:58.733Z,39.30
2022-11-27T07:31:30.037Z,30.75
2022-11-27T07:33:58.312Z,26.63
2022-11-27T07:36:29.886Z,20.10
2022-11-27T07:38:58.189Z,18.92
2022-11-27T07:41:32.240Z,17.67
2022-11-27T07:44:00.880Z,20.73
2022-11-27T07:46:30.049Z,21.77
2022-11-27T07:48:57.338Z,25.80
2022-11-27T07:51:24.590Z,27.15
2022-11-27T07:53:51.960Z,53.10
2022-11-27T07:56:20.273Z,40.30
2022-11-27T07:58:48.517Z,34.03
2022-11-27T08:01:19.171Z,25.65
2022-11-27T08:03:46.971Z,26.30
2022-11-27T08:06:24.217Z,21.88
2022-11-27T08:08:52.702Z,26.25
2022-11-27T08:11:30.065Z,22.42
2022-11-27T08:14:04.909Z,22.55
2022-11-27T08:16:34.032Z,18.35
2022-11-27T08:19:01.786Z,50.88
2022-11-27T08:21:30.484Z,24.55
2022-11-27T08:23:58.412Z,20.48
2022-11-27T08:26:27.763Z,15.23
2022-11-27T08:28:56.854Z,16.88
2022-11-27T08:31:25.878Z,19.90
2022-11-27T08:33:53.167Z,17.25
2022-11-27T08:36:20.712Z,17.55
2022-11-27T08:38:48.025Z,13.10
2022-11-27T08:41:15.265Z,14.93
2022-11-27T08:43:42.460Z,13.63
2022-11-27T08:46:10.706Z,13.88
2022-11-27T08:48:38.278Z,14.98
2022-11-27T08:51:13.075Z,11.77
2022-11-27T08:53:41.191Z,10.63
2022-11-27T08:56:24.726Z,16.90
2022-11-27T08:58:52.818Z,11.23
2022-11-27T09:01:30.591Z,12.05
2022-11-27T09:03:58.331Z,13.35
2022-11-27T09:06:30.030Z,14.15
2022-11-27T09:08:59.972Z,13.55
2022-11-27T09:11:29.754Z,12.13
2022-11-27T09:13:59.010Z,12.02
2022-11-27T09:16:26.338Z,11.43
2022-11-27T09:18:54.174Z,13.38
2022-11-27T09:21:27.148Z,13.40
2022-11-27T09:24:01.504Z,11.75
2022-11-27T09:26:30.183Z,11.10
2022-11-27T09:28:59.023Z,10.95
2022-11-27T09:31:26.602Z,10.95
2022-11-27T09:33:53.985Z,9.32
2022-11-27T09:36:25.332Z,9.07
2022-11-27T09:38:53.791Z,8.77
2022-11-27T09:41:52.234Z,11.18
2022-11-27T09:44:46.340Z,9.88
2022-11-27T09:47:42.040Z,8.95
2022-11-27T09:50:31.057Z,11.23
2022-11-27T09:53:25.322Z,9.25
2022-11-27T09:55:56.680Z,9.50
2022-11-27T09:58:41.013Z,11.77
2022-11-27T10:01:34.932Z,10.10
2022-11-27T10:04:12.927Z,9.30
2022-11-27T10:07:00.555Z,8.48
2022-11-27T10:09:51.783Z,8.35
2022-11-27T10:13:39.409Z,7.47
2022-11-27T10:16:44.032Z,7.95
2022-11-27T10:19:26.433Z,10.43
2022-11-27T10:22:37.944Z,9.10
2022-11-27T10:25:38.471Z,6.65
2022-11-27T10:28:50.969Z,8.80
2022-11-27T10:31:53.536Z,6.65
2022-11-27T10:34:34.017Z,6.25
2022-11-27T10:37:08.880Z,7.28
2022-11-27T10:39:58.672Z,9.17
2022-11-27T10:42:51.243Z,6.32
2022-11-27T10:45:59.076Z,5.63
2022-11-27T10:48:28.408Z,8.48
2022-11-27T10:50:56.768Z,7.93
2022-11-27T10:53:29.877Z,7.30
2022-11-27T10:56:12.470Z,7.60
2022-11-27T10:59:06.885Z,7.53
2022-11-27T11:01:48.518Z,7.00
2022-11-27T11:04:41.755Z,7.78
2022-11-27T11:07:29.157Z,5.07
2022-11-27T11:09:56.966Z,9.15
2022-11-27T11:12:24.629Z,8.77
2022-11-27T11:15:00.632Z,6.25
2022-11-27T11:17:40.764Z,6.32
2022-11-27T11:20:21.737Z,6.05
2022-11-27T11:22:50.021Z,6.22
2022-11-27T11:25:21.168Z,6.05
2022-11-27T11:27:51.358Z,5.65
2022-11-27T11:30:29.547Z,6.70
2022-11-27T11:33:04.265Z,5.38
2022-11-27T11:35:36.787Z,11.50
2022-11-27T11:38:15.896Z,5.65
2022-11-27T11:40:46.655Z,5.78
2022-11-27T11:43:35.664Z,5.82
2022-11-27T11:46:19.231Z,7.75
2022-11-27T11:49:24.667Z,5.80
2022-11-27T11:52:51.758Z,5.80
2022-11-27T11:56:00.646Z,8.05
2022-11-27T11:58:59.716Z,4.55
2022-11-27T12:01:56.415Z,12.88
2022-11-27T12:04:41.041Z,7.23
2022-11-27T12:07:57.822Z,5.70
2022-11-27T12:11:10.416Z,9.45
2022-11-27T12:14:14.280Z,6.47
2022-11-27T12:17:05.531Z,6.63
2022-11-27T12:20:24.454Z,7.63
2022-11-27T12:23:20.855Z,7.38
2022-11-27T12:26:30.026Z,7.63
2022-11-27T12:29:33.218Z,7.63
2022-11-27T12:32:21.113Z,9.57
2022-11-27T12:34:55.284Z,7.35
2022-11-27T12:38:16.404Z,9.20
2022-11-27T12:41:37.077Z,9.20
2022-11-27T12:44:29.540Z,12.02
2022-11-27T12:47:25.901Z,10.57
2022-11-27T12:50:04.467Z,13.05
2022-11-27T12:52:54.139Z,12.75
2022-11-27T12:55:29.411Z,9.85
2022-11-27T12:58:16.856Z,13.10
2022-11-27T13:00:44.249Z,10.65
2022-11-27T13:04:02.580Z,14.13
2022-11-27T13:06:38.756Z,10.70
2022-11-27T13:09:16.792Z,10.75
2022-11-27T13:11:44.609Z,10.23
2022-11-27T13:14:25.774Z,11.60
2022-11-27T13:17:05.022Z,10.68
2022-11-27T13:19:46.016Z,13.75
2022-11-27T13:22:27.342Z,13.05
2022-11-27T13:24:56.623Z,11.73
2022-11-27T13:27:30.804Z,12.35
2022-11-27T13:30:08.633Z,12.27
2022-11-27T13:32:51.333Z,12.80
2022-11-27T13:35:42.618Z,12.13
2022-11-27T13:38:38.154Z,10.27
2022-11-27T13:41:06.980Z,12.27
2022-11-27T13:43:44.348Z,12.23
2022-11-27T13:46:27.358Z,8.15
2022-11-27T13:49:05.194Z,8.15
2022-11-27T13:51:38.241Z,9.05
2022-11-27T13:54:22.293Z,9.18
2022-11-27T13:56:51.913Z,8.38
2022-11-27T13:59:25.537Z,7.18
2022-11-27T14:02:03.260Z,6.93
2022-11-27T14:04:33.121Z,8.32
2022-11-27T14:07:08.016Z,9.88
2022-11-27T14:09:55.656Z,9.05
2022-11-27T14:12:31.076Z,10.27
2022-11-27T14:15:07.891Z,8.90
2022-11-27T14:17:47.732Z,11.30
2022-11-27T14:20:18.015Z,8.70
2022-11-27T14:23:13.538Z,13.10
2022-11-27T14:25:41.613Z,11.23
2022-11-27T14:28:25.926Z,10.25
2022-11-27T14:31:00.121Z,12.88
2022-11-27T14:33:47.546Z,11.57
2022-11-27T14:36:30.672Z,12.25
2022-11-27T14:38:58.969Z,11.57
2022-11-27T14:41:29.138Z,10.48
2022-11-27T14:44:06.717Z,11.80
2022-11-27T14:46:37.326Z,9.63
2022-11-27T14:49:04.924Z,10.43
2022-11-27T14:51:35.784Z,11.75
2022-11-27T14:54:18.895Z,10.45
2022-11-27T14:56:46.508Z,10.75
2022-11-27T14:59:21.020Z,10.90
2022-11-27T15:02:17.831Z,11.00
2022-11-27T15:04:46.824Z,11.15
2022-11-27T15:07:48.014Z,11.90
2022-11-27T15:10:37.871Z,11.70
2022-11-27T15:13:08.773Z,14.25
2022-11-27T15:15:44.337Z,10.95
2022-11-27T15:18:22.746Z,12.63
2022-11-27T15:20:51.234Z,13.23
2022-11-27T15:23:26.581Z,11.32
2022-11-27T15:26:29.419Z,13.55
2022-11-27T15:28:59.723Z,13.07
2022-11-27T15:31:37.916Z,19.23
2022-11-27T15:34:16.165Z,13.00
2022-11-27T15:36:48.782Z,14.65
2022-11-27T15:39:35.433Z,15.82
2022-11-27T15:42:09.567Z,17.52
2022-11-27T15:44:38.284Z,17.10
2022-11-27T15:47:19.009Z,14.63
2022-11-27T15:49:46.297Z,15.77
2022-11-27T15:52:13.564Z,17.58
2022-11-27T15:54:40.994Z,18.75
2022-11-27T15:57:08.422Z,15.90
2022-11-27T15:59:35.657Z,19.60
2022-11-27T16:02:03.423Z,15.25
2022-11-27T16:04:31.476Z,16.30
2022-11-27T16:06:58.826Z,18.10
2022-11-27T16:09:26.056Z,19.60
2022-11-27T16:11:53.503Z,18.52
2022-11-27T16:14:20.699Z,16.70
2022-11-27T16:16:48.055Z,19.30
2022-11-27T16:19:16.947Z,19.13
2022-11-27T16:21:44.520Z,18.52
2022-11-27T16:24:14.708Z,24.75
2022-11-27T16:26:42.762Z,18.25
2022-11-27T16:29:10.605Z,18.58
2022-11-27T16:31:37.973Z,17.70
2022-11-27T16:34:06.504Z,19.80
2022-11-27T16:36:34.247Z,17.45
2022-11-27T16:39:02.660Z,22.38
2022-11-27T16:41:30.847Z,20.50
2022-11-27T16:43:58.327Z,21.52
2022-11-27T16:46:30.908Z,23.20
2022-11-27T16:49:00.696Z,21.63
2022-11-27T16:51:33.880Z,26.80
2022-11-27T16:54:05.780Z,25.48
2022-11-27T16:56:35.180Z,26.80
2022-11-27T16:59:14.507Z,29.02
2022-11-27T17:01:42.629Z,27.05
2022-11-27T17:04:20.139Z,25.00
2022-11-27T17:06:49.811Z,33.58
2022-11-27T17:09:17.752Z,42.17
2022-11-27T17:11:50.750Z,29.95
2022-11-27T17:14:20.369Z,29.38
2022-11-27T17:16:49.094Z,40.30
2022-11-27T17:19:17.712Z,26.77
2022-11-27T17:21:45.904Z,31.60
2022-11-27T17:24:16.310Z,30.73
2022-11-27T17:26:48.282Z,30.10
2022-11-27T17:29:19.319Z,29.58
2022-11-27T17:31:46.846Z,28.65
2022-11-27T17:34:16.379Z,28.48
2022-11-27T17:36:46.309Z,26.92
2022-11-27T17:39:15.487Z,30.17
2022-11-27T17:41:45.066Z,25.45
2022-11-27T17:44:13.475Z,56.03
2022-11-27T17:46:41.294Z,62.58
2022-11-27T17:49:08.705Z,58.15
2022-11-27T17:51:36.904Z,39.22
2022-11-27T17:54:05.911Z,39.95
2022-11-27T17:56:34.805Z,37.40
2022-11-27T17:59:02.690Z,38.05
2022-11-27T18:01:30.873Z,35.03
2022-11-27T18:04:01.204Z,29.17
2022-11-27T18:06:31.850Z,42.70
2022-11-27T18:09:00.302Z,36.88
2022-11-27T18:11:33.725Z,32.83
2022-11-27T18:14:01.479Z,33.70
2022-11-27T18:16:37.667Z,36.28
2022-11-27T18:19:11.056Z,35.65
2022-11-27T18:21:39.574Z,29.92
2022-11-27T18:24:24.619Z,29.88
2022-11-27T18:27:11.305Z,36.00
2022-11-27T18:32:12.441Z,40.05
2022-11-27T18:34:40.975Z,38.75
2022-11-27T18:37:08.859Z,39.15
2022-11-27T18:39:37.173Z,36.00
2022-11-27T18:42:06.117Z,35.88
2022-11-27T18:44:37.304Z,33.15
2022-11-27T18:47:11.124Z,38.15
2022-11-27T18:49:41.397Z,41.42
2022-11-27T18:52:09.448Z,32.97
2022-11-27T18:54:37.337Z,37.78
2022-11-27T18:57:06.984Z,31.05
2022-11-27T18:59:34.897Z,31.52
2022-11-27T19:02:03.927Z,32.53
2022-11-27T19:04:31.300Z,30.33
2022-11-27T19:06:58.604Z,35.28
2022-11-27T19:09:26.366Z,33.25
2022-11-27T19:11:54.143Z,28.52
2022-11-27T19:14:21.423Z,33.78
2022-11-27T19:16:48.936Z,32.78
2022-11-27T19:22:09.339Z,35.25
2022-11-27T19:24:38.118Z,31.10
2022-11-27T19:27:05.517Z,31.90
2022-11-27T19:29:32.823Z,37.22
2022-11-27T19:32:01.026Z,31.40
2022-11-27T19:34:28.703Z,32.67
2022-11-27T19:36:58.122Z,31.67
2022-11-27T19:39:27.063Z,32.30
2022-11-27T19:41:54.783Z,37.30
2022-11-27T19:44:22.160Z,32.05
2022-11-27T19:46:49.344Z,33.22
2022-11-27T19:49:18.630Z,31.30
2022-11-27T19:51:46.537Z,34.30
2022-11-27T19:54:16.597Z,41.50
2022-11-27T19:56:44.087Z,39.92
2022-11-27T19:59:13.154Z,42.60
2022-11-27T20:01:42.563Z,40.35
2022-11-27T20:04:12.660Z,39.67
2022-11-27T20:06:40.972Z,34.80
2022-11-27T20:09:08.876Z,41.15
2022-11-27T20:11:36.544Z,37.67
2022-11-27T20:14:07.289Z,43.38
2022-11-27T20:16:36.555Z,40.95
2022-11-27T20:19:05.955Z,38.45
2022-11-27T20:21:36.700Z,38.63
2022-11-27T20:24:04.900Z,38.53
2022-11-27T20:26:37.138Z,43.55
2022-11-27T20:29:07.545Z,36.15
2022-11-27T20:31:37.806Z,34.97
2022-11-27T20:34:08.513Z,37.10
2022-11-27T20:36:39.201Z,40.03
2022-11-27T20:39:06.722Z,40.00
2022-11-27T20:41:33.895Z,39.75
2022-11-27T20:44:04.647Z,40.35
2022-11-27T20:46:33.489Z,37.40
2022-11-27T20:49:04.236Z,33.03
2022-11-27T20:51:35.764Z,33.47
2022-11-27T20:54:09.247Z,31.77
2022-11-27T20:56:38.151Z,35.58
2022-11-27T20:59:07.765Z,33.90
2022-11-27T21:01:36.969Z,32.70
2022-11-27T21:04:09.535Z,35.85
2022-11-27T21:06:43.823Z,44.10
2022-11-27T21:09:13.701Z,49.23
2022-11-27T21:11:42.812Z,46.78
2022-11-27T21:14:14.023Z,42.05
2022-11-27T21:16:48.297Z,39.95
2022-11-27T21:19:25.275Z,40.53
2022-11-27T21:21:56.026Z,35.22
2022-11-27T21:24:27.817Z,40.97
2022-11-27T21:26:56.403Z,39.85
2022-11-27T21:29:25.779Z,37.97
2022-11-27T21:31:55.293Z,38.40
2022-11-27T21:34:24.685Z,37.65
2022-11-27T21:36:51.906Z,38.63
2022-11-27T21:39:22.473Z,40.72
2022-11-27T21:41:53.829Z,37.63
2022-11-27T21:44:22.635Z,36.03
2022-11-27T21:46:51.348Z,38.80
2022-11-27T21:49:21.153Z,37.92
2022-11-27T21:51:53.483Z,37.53
2022-11-27T21:54:24.592Z,42.83
2022-11-27T21:56:52.607Z,43.95
2022-11-27T21:59:20.478Z,39.90
2022-11-27T22:01:48.159Z,40.70
2022-11-27T22:04:15.989Z,39.15
2022-11-27T22:06:45.139Z,37.55
2022-11-27T22:09:15.701Z,38.03
2022-11-27T22:11:45.667Z,41.92
2022-11-27T22:14:15.927Z,44.47
2022-11-27T22:16:46.672Z,39.55
2022-11-27T22:19:17.001Z,37.58
2022-11-27T22:21:45.357Z,37.85
2022-11-27T22:24:18.755Z,40.42
2022-11-27T22:26:49.001Z,42.10
2022-11-27T22:29:16.701Z,36.22
2022-11-27T22:31:44.016Z,36.95
2022-11-27T22:34:11.413Z,39.67
2022-11-27T22:36:39.232Z,44.17
2022-11-27T22:39:08.884Z,49.60
2022-11-27T22:41:39.605Z,39.88
2022-11-27T22:44:18.506Z,43.88
2022-11-27T22:46:47.543Z,45.72
2022-11-27T22:49:18.719Z,46.65
2022-11-27T22:51:46.973Z,42.67
2022-11-27T22:54:17.074Z,40.55
2022-11-27T22:56:46.315Z,40.63
2022-11-27T23:02:06.434Z,39.42
2022-11-27T23:04:36.174Z,37.03
2022-11-27T23:07:05.830Z,38.60
2022-11-27T23:09:33.780Z,39.95
2022-11-27T23:12:01.041Z,36.90
2022-11-27T23:14:28.404Z,39.92
2022-11-27T23:16:55.756Z,39.65
2022-11-27T23:19:23.097Z,33.67
2022-11-27T23:21:50.357Z,37.65
2022-11-27T23:24:17.608Z,38.47
2022-11-27T23:26:46.064Z,39.00
2022-11-27T23:29:14.384Z,36.85
2022-11-27T23:31:41.975Z,36.58
2022-11-27T23:34:15.334Z,35.08
2022-11-27T23:36:43.284Z,34.25
2022-11-27T23:39:13.820Z,36.47
2022-11-27T23:41:41.650Z,37.97
2022-11-27T23:44:09.601Z,34.63
2022-11-27T23:46:36.821Z,35.83
2022-11-27T23:49:04.032Z,35.92
2022-11-27T23:51:32.801Z,37.78
2022-11-27T23:54:00.893Z,28.27
2022-11-27T23:56:31.709Z,33.28
2022-11-27T23:59:00.511Z,35.95
